Time;durP1;ratioP1;P1;durP2;ratioP2;P2;SDS_P1;SDS_P2;PMS_P1;PMS_P2;Temp;Humidity;BMP_temperature;BMP_pressure;BME280_temperature;BME280_humidity;BME280_pressure;Samples;Min_cycle;Max_cycle;Signal;HPM_P1;HPM_P2
2021/09/16 00:00:24;;;;;;;15.50;10.50;;;;;;;;;;5000942;28;20188;-85
2021/09/16 00:03:29;;;;;;;13.30;9.60;;;;;;;;;;5012274;28;20219;-84
2021/09/16 00:06:33;;;;;;;13.93;9.43;;;;;;;;;;5012201;28;20177;-84
2021/09/16 00:09:37;;;;;;;11.47;9.33;;;;;;;;;;5011255;28;20541;-84
2021/09/16 00:12:41;;;;;;;15.30;9.50;;;;;;;;;;5001061;28;20576;-84
2021/09/16 00:15:45;;;;;;;16.53;9.13;;;;;;;;;;5022478;28;20189;-86
2021/09/16 00:18:49;;;;;;;11.57;9.67;;;;;;;;;;5022198;28;20189;-84
2021/09/16 00:21:54;;;;;;;10.77;8.60;;;;;;;;;;5011364;28;20177;-85
2021/09/16 00:24:58;;;;;;;11.67;9.17;;;;;;;;;;5000570;28;20529;-84
2021/09/16 00:28:02;;;;;;;14.17;8.67;;;;;;;;;;5011165;28;20173;-84
2021/09/16 00:31:06;;;;;;;13.70;9.07;;;;;;;;;;4999293;28;20196;-83
2021/09/16 00:34:11;;;;;;;15.47;8.63;;;;;;;;;;5000197;28;20204;-82
2021/09/16 00:37:16;;;;;;;13.23;8.53;;;;;;;;;;4999410;28;20663;-83
2021/09/16 00:40:20;;;;;;;11.50;7.57;;;;;;;;;;5011532;28;20176;-82
2021/09/16 00:43:24;;;;;;;17.23;8.07;;;;;;;;;;5000949;28;20225;-83
2021/09/16 00:46:28;;;;;;;10.90;7.27;;;;;;;;;;5011044;28;20201;-84
2021/09/16 00:49:32;;;;;;;11.03;8.07;;;;;;;;;;4999796;28;20200;-84
2021/09/16 00:52:41;;;;;;;11.53;7.60;;;;;;;;;;5028549;22;20232;31
2021/09/16 00:55:45;;;;;;;13.83;7.73;;;;;;;;;;4943606;29;20215;-84
2021/09/16 00:58:52;;;;;;;10.37;7.47;;;;;;;;;;4956695;29;20187;-82
2021/09/16 01:01:56;;;;;;;14.10;7.03;;;;;;;;;;4945289;29;20504;-82
2021/09/16 01:05:00;;;;;;;10.37;7.97;;;;;;;;;;4937706;29;20184;-82
2021/09/16 01:08:06;;;;;;;11.93;7.57;;;;;;;;;;4926184;29;20188;-82
2021/09/16 01:11:11;;;;;;;10.33;8.13;;;;;;;;;;4937951;29;20180;-82
2021/09/16 01:14:26;;;;;;;13.13;8.10;;;;;;;;;;4936769;29;20219;-85
2021/09/16 01:17:30;;;;;;;13.00;7.93;;;;;;;;;;4914921;29;20184;-84
2021/09/16 01:20:34;;;;;;;11.10;7.43;;;;;;;;;;4938647;29;20200;-84
2021/09/16 01:23:39;;;;;;;10.40;8.07;;;;;;;;;;4929264;29;20223;-82
2021/09/16 01:26:45;;;;;;;13.67;7.77;;;;;;;;;;4931169;29;20632;-82
2021/09/16 01:29:49;;;;;;;10.77;7.57;;;;;;;;;;4920279;29;20188;-84
2021/09/16 01:32:57;;;;;;;10.13;8.33;;;;;;;;;;4928772;29;20237;-85
2021/09/16 01:36:07;;;;;;;9.97;7.70;;;;;;;;;;4939878;29;20192;-82
2021/09/16 01:39:15;;;;;;;13.37;8.63;;;;;;;;;;4940383;29;20636;-84
2021/09/16 01:42:19;;;;;;;16.30;8.93;;;;;;;;;;4928749;29;20188;-84
2021/09/16 01:45:26;;;;;;;14.67;8.17;;;;;;;;;;4928421;29;20192;-82
2021/09/16 01:48:29;;;;;;;11.17;7.90;;;;;;;;;;4940548;29;20188;-82
2021/09/16 01:51:34;;;;;;;10.80;7.60;;;;;;;;;;4939593;29;20187;-82
2021/09/16 01:54:38;;;;;;;11.37;8.27;;;;;;;;;;4929350;29;20224;-82
2021/09/16 01:57:43;;;;;;;13.37;7.70;;;;;;;;;;4929703;29;20184;-82
2021/09/16 02:00:47;;;;;;;12.67;7.80;;;;;;;;;;4939193;29;20667;-82
2021/09/16 02:03:54;;;;;;;10.33;7.87;;;;;;;;;;4928017;29;20215;-82
2021/09/16 02:06:58;;;;;;;13.13;8.63;;;;;;;;;;4939064;29;20208;-82
2021/09/16 02:10:04;;;;;;;12.50;8.73;;;;;;;;;;4928109;29;20559;-82
2021/09/16 02:13:08;;;;;;;11.23;7.90;;;;;;;;;;4917394;29;20224;-82
2021/09/16 02:16:12;;;;;;;13.37;7.80;;;;;;;;;;4928667;29;20188;-82
2021/09/16 02:19:16;;;;;;;11.87;7.37;;;;;;;;;;4928444;29;20188;-82
2021/09/16 02:22:20;;;;;;;12.03;7.43;;;;;;;;;;4928139;29;20180;-82
2021/09/16 02:25:25;;;;;;;11.17;7.97;;;;;;;;;;4939211;29;20188;-82
2021/09/16 02:28:29;;;;;;;9.53;7.30;;;;;;;;;;4939148;29;20692;-82
2021/09/16 02:31:33;;;;;;;14.33;7.77;;;;;;;;;;4927682;29;20204;-82
2021/09/16 02:34:37;;;;;;;11.93;8.53;;;;;;;;;;4927686;29;20212;-82
2021/09/16 02:37:41;;;;;;;15.73;8.00;;;;;;;;;;4927827;29;20188;-82
2021/09/16 02:40:46;;;;;;;14.20;8.57;;;;;;;;;;4938634;29;20184;-82
2021/09/16 02:43:50;;;;;;;12.37;8.00;;;;;;;;;;4916739;29;20215;-82
2021/09/16 02:46:53;;;;;;;12.63;7.60;;;;;;;;;;4928371;29;20176;-82
2021/09/16 02:49:58;;;;;;;12.27;7.80;;;;;;;;;;4927268;29;20184;-81
2021/09/16 02:53:03;;;;;;;11.27;7.90;;;;;;;;;;4938123;29;20223;-82
2021/09/16 02:56:07;;;;;;;10.00;8.20;;;;;;;;;;4938484;29;20192;-82
2021/09/16 02:59:11;;;;;;;13.97;8.83;;;;;;;;;;4938304;29;20204;-82
2021/09/16 03:02:15;;;;;;;15.70;8.43;;;;;;;;;;4927741;29;20180;-82
2021/09/16 03:05:19;;;;;;;11.83;8.30;;;;;;;;;;4927239;29;20196;-82
2021/09/16 03:08:24;;;;;;;12.33;8.07;;;;;;;;;;4927554;29;20192;-82
2021/09/16 03:11:28;;;;;;;11.03;8.10;;;;;;;;;;4927705;29;20528;-82
2021/09/16 03:14:32;;;;;;;12.13;8.10;;;;;;;;;;4937815;29;20228;-82
2021/09/16 03:17:36;;;;;;;10.77;8.30;;;;;;;;;;4938120;29;20196;-82
2021/09/16 03:20:40;;;;;;;14.20;7.90;;;;;;;;;;4938181;29;20184;-82
2021/09/16 03:23:44;;;;;;;12.50;7.87;;;;;;;;;;4926904;29;20216;-82
2021/09/16 03:26:48;;;;;;;11.80;8.13;;;;;;;;;;4937755;29;20181;-82
2021/09/16 03:29:53;;;;;;;13.73;8.10;;;;;;;;;;4926915;29;20185;-82
2021/09/16 03:32:57;;;;;;;10.73;8.27;;;;;;;;;;4937741;29;20707;-82
2021/09/16 03:36:02;;;;;;;15.07;8.97;;;;;;;;;;4926124;29;20212;-82
2021/09/16 03:39:07;;;;;;;12.07;8.50;;;;;;;;;;4926560;29;20513;-83
2021/09/16 03:42:12;;;;;;;11.73;8.77;;;;;;;;;;4926116;29;20663;-82
2021/09/16 03:45:17;;;;;;;14.40;8.70;;;;;;;;;;4937618;29;20188;-82
2021/09/16 03:48:21;;;;;;;12.53;8.43;;;;;;;;;;4937312;29;20192;-81
2021/09/16 03:51:26;;;;;;;11.93;9.13;;;;;;;;;;4926256;29;20180;-82
2021/09/16 03:54:30;;;;;;;13.73;9.07;;;;;;;;;;4926540;29;20227;-82
2021/09/16 03:57:35;;;;;;;16.77;8.83;;;;;;;;;;4926723;29;20644;-82
2021/09/16 04:00:40;;;;;;;12.93;8.73;;;;;;;;;;4926513;29;20521;-82
2021/09/16 04:03:44;;;;;;;12.30;9.00;;;;;;;;;;4937526;29;20699;-84
2021/09/16 04:06:47;;;;;;;11.47;8.27;;;;;;;;;;4926281;29;20184;-84
2021/09/16 04:09:52;;;;;;;10.33;7.87;;;;;;;;;;4938713;29;20192;-82
2021/09/16 04:12:57;;;;;;;14.13;8.87;;;;;;;;;;4926680;29;20223;-82
2021/09/16 04:16:01;;;;;;;10.83;8.43;;;;;;;;;;4927418;29;20183;-82
2021/09/16 04:19:06;;;;;;;15.73;8.80;;;;;;;;;;4926896;29;20180;-81
2021/09/16 04:22:10;;;;;;;12.47;9.10;;;;;;;;;;4915118;29;20183;-82
2021/09/16 04:25:15;;;;;;;13.53;8.53;;;;;;;;;;4936880;29;20188;-82
2021/09/16 04:28:19;;;;;;;13.40;8.20;;;;;;;;;;4915212;29;20184;-81
2021/09/16 04:31:24;;;;;;;14.97;8.23;;;;;;;;;;4936274;29;20203;-82
2021/09/16 04:34:28;;;;;;;11.00;7.93;;;;;;;;;;4915044;29;20224;-83
2021/09/16 04:37:32;;;;;;;10.90;9.03;;;;;;;;;;4926183;29;20516;-82
2021/09/16 04:40:36;;;;;;;10.93;8.00;;;;;;;;;;4926016;29;20204;-82
2021/09/16 04:43:41;;;;;;;13.13;9.03;;;;;;;;;;4936379;29;20219;-82
2021/09/16 04:46:45;;;;;;;12.63;8.93;;;;;;;;;;4936815;29;20520;-82
2021/09/16 04:49:49;;;;;;;15.33;9.20;;;;;;;;;;4915925;29;20188;-84
2021/09/16 04:52:53;;;;;;;11.90;9.57;;;;;;;;;;4925426;29;20199;-84
2021/09/16 04:55:57;;;;;;;9.93;8.73;;;;;;;;;;4939763;29;20188;-82
2021/09/16 04:59:01;;;;;;;11.00;8.57;;;;;;;;;;4941629;29;20195;-82
2021/09/16 05:02:05;;;;;;;11.77;8.63;;;;;;;;;;4940746;29;20180;-82
2021/09/16 05:05:11;;;;;;;10.97;9.17;;;;;;;;;;4919164;29;20176;-82
2021/09/16 05:08:16;;;;;;;13.20;9.30;;;;;;;;;;4940997;29;20180;-82
2021/09/16 05:11:20;;;;;;;12.47;9.00;;;;;;;;;;4940462;29;20203;-82
2021/09/16 05:14:24;;;;;;;14.70;9.17;;;;;;;;;;4928964;29;20223;-82
2021/09/16 05:17:28;;;;;;;12.57;8.73;;;;;;;;;;4929472;29;20203;-82
2021/09/16 05:20:32;;;;;;;13.33;8.97;;;;;;;;;;4941101;29;20521;-82
2021/09/16 05:23:37;;;;;;;13.53;9.60;;;;;;;;;;4929617;29;20231;-82
2021/09/16 05:26:41;;;;;;;12.43;9.50;;;;;;;;;;4939977;29;20192;-82
2021/09/16 05:29:46;;;;;;;12.00;9.53;;;;;;;;;;4929293;29;20188;-82
2021/09/16 05:32:50;;;;;;;14.47;9.77;;;;;;;;;;4929510;29;20649;-82
2021/09/16 05:35:54;;;;;;;14.67;10.20;;;;;;;;;;4939883;29;20172;-82
2021/09/16 05:38:59;;;;;;;15.37;10.67;;;;;;;;;;4940335;29;20203;-82
2021/09/16 05:42:04;;;;;;;12.63;10.70;;;;;;;;;;4939880;29;20215;-82
2021/09/16 05:45:09;;;;;;;14.83;9.83;;;;;;;;;;4941118;29;20671;-82
2021/09/16 05:48:14;;;;;;;19.53;11.40;;;;;;;;;;4940615;29;20180;-82
2021/09/16 05:51:18;;;;;;;13.70;10.53;;;;;;;;;;4928661;29;20187;-82
2021/09/16 05:54:22;;;;;;;22.17;10.37;;;;;;;;;;4928312;29;20230;-82
2021/09/16 05:57:26;;;;;;;20.13;9.67;;;;;;;;;;4940949;29;20211;-82
2021/09/16 06:00:30;;;;;;;10.57;8.70;;;;;;;;;;4929593;29;20183;-82
2021/09/16 06:03:35;;;;;;;13.00;8.70;;;;;;;;;;4940027;29;20228;-82
2021/09/16 06:06:39;;;;;;;9.83;8.80;;;;;;;;;;4942358;29;20184;-82
2021/09/16 06:09:43;;;;;;;14.63;8.67;;;;;;;;;;4941349;29;20181;-82
2021/09/16 06:12:47;;;;;;;11.33;8.70;;;;;;;;;;4940486;29;20188;-82
2021/09/16 06:15:51;;;;;;;11.47;8.67;;;;;;;;;;4940722;29;20180;-82
2021/09/16 06:18:56;;;;;;;12.63;8.47;;;;;;;;;;4929759;29;20529;-82
2021/09/16 06:22:00;;;;;;;9.80;8.03;;;;;;;;;;4929812;29;20203;-82
2021/09/16 06:25:06;;;;;;;11.53;8.57;;;;;;;;;;4940602;29;20200;-82
2021/09/16 06:28:10;;;;;;;9.73;8.10;;;;;;;;;;4929260;29;20176;-82
2021/09/16 06:31:14;;;;;;;12.87;8.00;;;;;;;;;;4940380;29;20188;-82
2021/09/16 06:34:18;;;;;;;10.87;8.57;;;;;;;;;;4928892;29;20223;-82
2021/09/16 06:37:23;;;;;;;9.30;7.67;;;;;;;;;;4929457;29;20188;-82
2021/09/16 06:40:27;;;;;;;9.10;8.00;;;;;;;;;;4940693;29;20192;-82
2021/09/16 06:43:31;;;;;;;10.17;7.80;;;;;;;;;;4939254;29;20556;-82
2021/09/16 06:46:35;;;;;;;14.03;8.40;;;;;;;;;;4928619;29;20184;-82
2021/09/16 06:49:45;;;;;;;10.37;7.70;;;;;;;;;;4938877;29;20189;-82
2021/09/16 06:52:49;;;;;;;11.50;7.63;;;;;;;;;;4939883;29;20204;-82
2021/09/16 06:55:54;;;;;;;12.97;7.90;;;;;;;;;;4928230;29;20172;-84
2021/09/16 06:58:58;;;;;;;11.40;7.83;;;;;;;;;;4927293;29;20525;-85
2021/09/16 07:02:03;;;;;;;10.30;8.17;;;;;;;;;;4938082;29;20188;-85
2021/09/16 07:05:08;;;;;;;11.27;7.47;;;;;;;;;;4926811;29;20180;-84
2021/09/16 07:08:12;;;;;;;10.80;7.37;;;;;;;;;;4927705;29;20647;-85
2021/09/16 07:11:16;;;;;;;9.93;7.70;;;;;;;;;;4938149;29;20204;-84
2021/09/16 07:14:20;;;;;;;11.40;7.63;;;;;;;;;;4926805;29;20228;-84
2021/09/16 07:17:25;;;;;;;11.60;8.10;;;;;;;;;;4926023;29;20211;-84
2021/09/16 07:20:29;;;;;;;12.73;7.67;;;;;;;;;;4927317;29;20188;-84
2021/09/16 07:23:33;;;;;;;12.37;8.47;;;;;;;;;;4927446;29;20567;-84
2021/09/16 07:26:37;;;;;;;8.93;7.77;;;;;;;;;;4926863;29;20636;-84
2021/09/16 07:29:41;;;;;;;12.67;8.00;;;;;;;;;;4938118;29;20188;-84
2021/09/16 07:32:45;;;;;;;13.23;8.40;;;;;;;;;;4937960;29;20187;-84
2021/09/16 07:35:49;;;;;;;10.07;7.40;;;;;;;;;;4937763;29;20229;-84
2021/09/16 07:38:54;;;;;;;8.33;7.43;;;;;;;;;;4938274;29;20196;-84
2021/09/16 07:41:58;;;;;;;12.93;8.50;;;;;;;;;;4927118;29;20176;-85
2021/09/16 07:45:03;;;;;;;12.37;7.73;;;;;;;;;;4927339;29;20172;-85
2021/09/16 07:48:07;;;;;;;10.40;8.23;;;;;;;;;;4927315;29;20184;-85
2021/09/16 07:51:11;;;;;;;9.23;7.73;;;;;;;;;;4938225;29;20571;-85
2021/09/16 07:54:15;;;;;;;12.23;8.10;;;;;;;;;;4937623;29;20231;-85
2021/09/16 07:57:19;;;;;;;9.57;8.40;;;;;;;;;;4938083;29;20624;-84
2021/09/16 08:00:24;;;;;;;17.03;8.60;;;;;;;;;;4937740;29;20188;-84
2021/09/16 08:03:28;;;;;;;9.73;7.80;;;;;;;;;;4937798;29;20238;-85
2021/09/16 08:06:32;;;;;;;8.87;7.97;;;;;;;;;;4926592;29;20180;-84
2021/09/16 08:09:37;;;;;;;14.43;8.27;;;;;;;;;;4926840;29;20609;-85
2021/09/16 08:12:41;;;;;;;11.50;7.27;;;;;;;;;;4926797;29;20188;-84
2021/09/16 08:15:46;;;;;;;7.33;6.37;;;;;;;;;;4926694;29;20216;-84
2021/09/16 08:18:50;;;;;;;9.57;6.67;;;;;;;;;;4926556;29;20191;-84
2021/09/16 08:21:54;;;;;;;8.40;5.33;;;;;;;;;;4937617;29;20188;-84
2021/09/16 08:24:58;;;;;;;6.93;5.60;;;;;;;;;;4926900;29;20215;-85
2021/09/16 08:28:03;;;;;;;9.97;5.87;;;;;;;;;;4926107;29;20266;-84
2021/09/16 08:31:08;;;;;;;9.07;5.43;;;;;;;;;;4936906;29;20176;-85
2021/09/16 08:34:12;;;;;;;5.93;5.17;;;;;;;;;;4925777;29;20223;-84
2021/09/16 08:37:16;;;;;;;10.23;6.13;;;;;;;;;;4926267;29;20188;-85
2021/09/16 08:40:22;;;;;;;10.23;6.30;;;;;;;;;;4925495;29;20180;-85
2021/09/16 08:43:30;;;;;;;9.30;6.33;;;;;;;;;;4926272;29;20556;-84
2021/09/16 08:46:35;;;;;;;8.80;5.83;;;;;;;;;;4916108;29;20177;-85
2021/09/16 08:49:38;;;;;;;6.50;5.67;;;;;;;;;;4937856;29;20204;-85
2021/09/16 08:52:44;;;;;;;8.60;5.87;;;;;;;;;;4926293;29;20192;-85
2021/09/16 08:55:50;;;;;;;8.67;6.23;;;;;;;;;;4936975;29;20213;-85
2021/09/16 08:59:02;;;;;;;7.57;5.90;;;;;;;;;;4916570;29;20202;-85
2021/09/16 09:02:07;;;;;;;10.67;6.97;;;;;;;;;;4939455;29;20196;-85
2021/09/16 09:05:12;;;;;;;8.40;6.17;;;;;;;;;;4939583;29;20196;-85
2021/09/16 09:08:25;;;;;;;7.53;5.63;;;;;;;;;;4940615;29;20189;-85
2021/09/16 09:11:28;;;;;;;7.93;5.93;;;;;;;;;;4928098;29;20185;-85
2021/09/16 09:14:36;;;;;;;11.70;5.63;;;;;;;;;;4939266;29;20225;-85
2021/09/16 09:17:40;;;;;;;9.10;5.77;;;;;;;;;;4917196;29;20204;-85
2021/09/16 09:20:55;;;;;;;8.30;5.10;;;;;;;;;;4928116;29;20188;-85
2021/09/16 09:24:01;;;;;;;10.87;5.30;;;;;;;;;;4937176;29;20226;-85
2021/09/16 09:27:31;;;;;;;5.50;4.60;;;;;;;;;;4937246;29;20202;-85
2021/09/16 09:30:39;;;;;;;6.53;5.03;;;;;;;;;;4937571;29;20526;-85
2021/09/16 09:33:43;;;;;;;9.07;5.00;;;;;;;;;;4915821;29;20230;-85
2021/09/16 09:36:48;;;;;;;6.63;5.10;;;;;;;;;;4916039;29;20183;-85
2021/09/16 09:39:58;;;;;;;6.97;5.10;;;;;;;;;;4915862;29;20180;-84
2021/09/16 09:43:20;;;;;;;7.00;5.33;;;;;;;;;;4931336;29;20225;-85
2021/09/16 09:46:24;;;;;;;6.60;5.67;;;;;;;;;;4931378;29;20191;-85
2021/09/16 09:49:28;;;;;;;6.70;4.90;;;;;;;;;;4931538;29;20198;-85
2021/09/16 09:52:32;;;;;;;7.93;6.00;;;;;;;;;;4931585;29;20205;-85
2021/09/16 09:55:40;;;;;;;7.53;4.73;;;;;;;;;;4930355;29;20228;-85
2021/09/16 09:58:45;;;;;;;9.17;5.67;;;;;;;;;;4941564;29;20188;-85
2021/09/16 10:01:49;;;;;;;7.63;5.63;;;;;;;;;;4919392;29;20181;-85
2021/09/16 10:04:53;;;;;;;9.57;6.83;;;;;;;;;;4930151;29;20219;-85
2021/09/16 10:08:11;;;;;;;8.80;6.27;;;;;;;;;;4919890;29;20188;-85
2021/09/16 10:11:35;;;;;;;9.47;5.73;;;;;;;;;;4941220;29;20188;-85
2021/09/16 10:14:40;;;;;;;6.00;4.87;;;;;;;;;;4928199;29;20220;-85
2021/09/16 10:17:45;;;;;;;6.90;4.23;;;;;;;;;;4939201;29;20186;-85
2021/09/16 10:20:49;;;;;;;6.80;3.97;;;;;;;;;;4928249;29;20514;-85
2021/09/16 10:23:59;;;;;;;6.57;3.73;;;;;;;;;;4927835;29;20223;-85
2021/09/16 10:27:29;;;;;;;5.47;3.20;;;;;;;;;;4927914;29;20645;-85
2021/09/16 10:30:35;;;;;;;4.90;2.67;;;;;;;;;;4938802;29;20188;-85
2021/09/16 10:33:51;;;;;;;4.00;3.00;;;;;;;;;;4927384;29;20229;-86
2021/09/16 10:37:13;;;;;;;5.03;3.00;;;;;;;;;;4938678;29;20184;-85
2021/09/16 10:40:18;;;;;;;7.80;3.80;;;;;;;;;;4939472;29;20188;-86
2021/09/16 10:43:24;;;;;;;9.82;3.55;;;;;;;;;;4938367;29;20695;-86
2021/09/16 10:46:45;;;;;;;6.00;2.60;;;;;;;;;;4938442;29;20189;-86
2021/09/16 10:49:51;;;;;;;3.55;2.45;;;;;;;;;;4927326;29;20519;-86
2021/09/16 10:53:35;;;;;;;4.00;1.75;;;;;;;;;;4936637;29;20204;-85
2021/09/16 10:56:39;;;;;;;4.85;1.90;;;;;;;;;;4937834;29;20218;-86
2021/09/16 10:59:15;;;;;;;2.40;1.50;;;;;;;;;;5111969;27;20849;-76
2021/09/16 11:01:54;;;;;;;3.60;1.80;;;;;;;;;;5070778;28;20878;-78
2021/09/16 11:04:59;;;;;;;3.50;2.42;;;;;;;;;;5070961;28;20822;-76
2021/09/16 11:08:03;;;;;;;3.42;2.40;;;;;;;;;;5070167;28;20260;-77
2021/09/16 11:11:07;;;;;;;3.40;2.28;;;;;;;;;;5070822;28;20220;-76
2021/09/16 11:14:26;;;;;;;4.63;2.60;;;;;;;;;;5070858;28;20187;-76
2021/09/16 11:17:30;;;;;;;3.72;2.80;;;;;;;;;;5070123;28;20624;-76
2021/09/16 11:20:10;;;;;;;5.22;2.55;;;;;;;;;;5112333;27;20829;-78
2021/09/16 11:22:51;;;;;;;4.22;2.97;;;;;;;;;;5112676;27;20821;-78
2021/09/16 11:25:39;;;;;;;4.35;2.58;;;;;;;;;;5112451;27;20847;-78
2021/09/16 11:28:17;;;;;;;6.97;2.63;;;;;;;;;;5112734;27;20871;-78
2021/09/16 11:30:54;;;;;;;3.40;2.40;;;;;;;;;;5112246;27;20892;-78
2021/09/16 11:33:31;;;;;;;4.30;2.90;;;;;;;;;;5112373;27;20811;-78
2021/09/16 11:36:08;;;;;;;5.03;2.60;;;;;;;;;;5071928;28;20795;-77
2021/09/16 11:38:44;;;;;;;2.73;1.80;;;;;;;;;;5112232;27;20808;-78
2021/09/16 11:41:26;;;;;;;4.77;2.20;;;;;;;;;;5111638;27;20808;-76
2021/09/16 11:44:09;;;;;;;3.67;2.17;;;;;;;;;;5112593;27;20834;-78
2021/09/16 11:46:47;;;;;;;6.30;2.10;;;;;;;;;;5112469;27;21220;-78
2021/09/16 11:49:23;;;;;;;4.23;1.87;;;;;;;;;;5112634;27;20832;-78
2021/09/16 11:52:00;;;;;;;2.70;2.03;;;;;;;;;;5111670;27;21469;-78
2021/09/16 11:54:37;;;;;;;3.43;2.30;;;;;;;;;;5072104;28;20799;-78
2021/09/16 11:57:13;;;;;;;3.97;2.17;;;;;;;;;;5112180;27;20842;-78
2021/09/16 11:59:50;;;;;;;4.80;2.00;;;;;;;;;;5112255;27;21441;-78
2021/09/16 12:02:45;;;;;;;4.53;2.60;;;;;;;;;;5111596;27;20873;-76
2021/09/16 12:05:33;;;;;;;4.37;2.37;;;;;;;;;;5111991;27;20865;-78
2021/09/16 12:08:22;;;;;;;4.53;2.20;;;;;;;;;;5071185;28;20798;-78
2021/09/16 12:11:16;;;;;;;9.73;2.40;;;;;;;;;;5071179;28;21258;-78
2021/09/16 12:13:57;;;;;;;3.63;2.00;;;;;;;;;;5112197;27;20830;-78
2021/09/16 12:16:36;;;;;;;4.30;2.47;;;;;;;;;;5112438;27;20831;-78
2021/09/16 12:19:14;;;;;;;4.23;2.83;;;;;;;;;;5112279;27;20806;-78
2021/09/16 12:21:54;;;;;;;6.27;3.30;;;;;;;;;;5111325;27;20890;-77
2021/09/16 12:24:31;;;;;;;8.27;2.90;;;;;;;;;;5112143;27;20859;-78
2021/09/16 12:27:13;;;;;;;4.83;2.80;;;;;;;;;;5111392;27;20833;-78
2021/09/16 12:29:54;;;;;;;5.93;2.80;;;;;;;;;;5108953;27;20826;-78
2021/09/16 12:32:31;;;;;;;5.87;2.60;;;;;;;;;;5007481;28;20866;-78
2021/09/16 12:35:16;;;;;;;4.10;2.97;;;;;;;;;;5111293;27;20878;-78
2021/09/16 12:38:05;;;;;;;3.50;2.57;;;;;;;;;;5111668;27;20899;-77
2021/09/16 12:40:41;;;;;;;4.53;2.97;;;;;;;;;;5069010;28;20858;-78
2021/09/16 12:43:18;;;;;;;8.07;2.90;;;;;;;;;;5108778;27;20856;-78
2021/09/16 12:45:56;;;;;;;4.13;2.90;;;;;;;;;;5006045;27;21470;-78
2021/09/16 12:48:33;;;;;;;3.20;2.60;;;;;;;;;;5070667;28;21214;-76
2021/09/16 12:51:13;;;;;;;5.27;2.60;;;;;;;;;;5130968;27;20831;-78
2021/09/16 12:53:53;;;;;;;3.37;2.47;;;;;;;;;;5112633;27;20857;-77
2021/09/16 12:56:31;;;;;;;3.13;2.40;;;;;;;;;;5070757;28;20834;-74
2021/09/16 12:59:24;;;;;;;5.80;2.47;;;;;;;;;;5111032;27;20846;-73
2021/09/16 13:02:12;;;;;;;4.37;3.03;;;;;;;;;;5066047;28;20842;-73
2021/09/16 13:04:58;;;;;;;4.93;3.23;;;;;;;;;;5067109;28;20854;-73
2021/09/16 13:07:40;;;;;;;7.03;2.97;;;;;;;;;;5107300;27;20824;-73
2021/09/16 13:10:20;;;;;;;4.50;2.70;;;;;;;;;;5066042;28;20850;-73
2021/09/16 13:13:11;;;;;;;6.20;2.80;;;;;;;;;;5123013;27;20831;-73
2021/09/16 13:15:48;;;;;;;5.73;2.30;;;;;;;;;;5107136;27;22020;-75
2021/09/16 13:18:24;;;;;;;3.53;2.20;;;;;;;;;;5087155;28;20850;-73
2021/09/16 13:21:02;;;;;;;3.20;2.50;;;;;;;;;;5066943;28;20849;-73
2021/09/16 13:23:39;;;;;;;4.30;2.53;;;;;;;;;;5107490;27;20824;-73
2021/09/16 13:26:16;;;;;;;5.33;3.00;;;;;;;;;;5066652;28;20849;-73
2021/09/16 13:28:57;;;;;;;3.40;2.00;;;;;;;;;;5067066;28;20801;-73
2021/09/16 13:31:34;;;;;;;7.27;1.70;;;;;;;;;;5055482;28;20845;-73
2021/09/16 13:34:10;;;;;;;3.93;1.70;;;;;;;;;;5107350;27;20983;-75
2021/09/16 13:36:47;;;;;;;3.07;1.87;;;;;;;;;;5066206;28;20861;-72
2021/09/16 13:39:24;;;;;;;17.60;5.07;;;;;;;;;;5066379;28;20888;-73
2021/09/16 13:42:01;;;;;;;5.77;2.83;;;;;;;;;;5107202;27;20939;-74
2021/09/16 13:44:40;;;;;;;8.67;2.27;;;;;;;;;;5107697;27;20873;-74
2021/09/16 13:47:19;;;;;;;4.00;2.33;;;;;;;;;;5067085;28;21276;-74
2021/09/16 13:49:57;;;;;;;5.30;2.60;;;;;;;;;;5066560;28;20819;-73
2021/09/16 13:52:34;;;;;;;6.30;2.70;;;;;;;;;;5066917;28;20896;-74
2021/09/16 13:55:13;;;;;;;4.53;2.70;;;;;;;;;;5067060;28;20900;-74
2021/09/16 13:57:49;;;;;;;5.73;2.70;;;;;;;;;;5066885;28;20833;-72
2021/09/16 14:00:26;;;;;;;4.67;2.00;;;;;;;;;;5106607;27;20876;-74
2021/09/16 14:03:04;;;;;;;4.90;2.27;;;;;;;;;;5107355;27;20828;-73
2021/09/16 14:05:41;;;;;;;6.00;2.20;;;;;;;;;;5107780;27;20834;-73
2021/09/16 14:08:17;;;;;;;14.43;3.57;;;;;;;;;;5067029;28;21444;-75
2021/09/16 14:10:54;;;;;;;11.17;3.33;;;;;;;;;;5060956;28;20975;-72
2021/09/16 14:13:31;;;;;;;2.73;1.97;;;;;;;;;;5106994;27;20819;-74
2021/09/16 14:16:08;;;;;;;2.80;2.20;;;;;;;;;;5107422;27;21482;-73
2021/09/16 14:18:44;;;;;;;4.70;2.77;;;;;;;;;;5087279;27;20801;-75
2021/09/16 14:21:21;;;;;;;5.23;2.30;;;;;;;;;;5038441;28;20872;-75
2021/09/16 14:23:57;;;;;;;4.17;2.30;;;;;;;;;;5066629;28;21368;-75
2021/09/16 14:26:34;;;;;;;5.97;3.07;;;;;;;;;;5107853;27;20803;-75
2021/09/16 14:29:11;;;;;;;3.73;2.83;;;;;;;;;;5123429;27;20859;-73
2021/09/16 14:31:47;;;;;;;6.07;3.20;;;;;;;;;;5055059;28;21361;-73
2021/09/16 14:34:24;;;;;;;4.53;2.93;;;;;;;;;;5066485;28;20830;-70
2021/09/16 14:37:03;;;;;;;3.20;2.87;;;;;;;;;;5086231;27;20885;-73
2021/09/16 14:39:40;;;;;;;5.53;2.77;;;;;;;;;;5066324;28;20810;-73
2021/09/16 14:42:17;;;;;;;5.00;3.20;;;;;;;;;;5057679;28;20824;-73
2021/09/16 14:44:53;;;;;;;7.13;3.20;;;;;;;;;;5106794;27;20835;-73
2021/09/16 14:47:30;;;;;;;8.73;3.80;;;;;;;;;;5106848;27;20830;-73
2021/09/16 14:50:07;;;;;;;5.50;3.77;;;;;;;;;;5066111;28;20818;-73
2021/09/16 14:52:45;;;;;;;4.50;4.07;;;;;;;;;;5066596;28;21443;-73
2021/09/16 14:55:22;;;;;;;5.40;4.53;;;;;;;;;;5078687;27;20808;-74
2021/09/16 14:58:00;;;;;;;5.00;4.60;;;;;;;;;;5127699;27;21471;-73
2021/09/16 15:00:38;;;;;;;7.17;5.10;;;;;;;;;;5127893;27;20903;-74
2021/09/16 15:03:14;;;;;;;6.03;5.53;;;;;;;;;;5066132;28;20806;-73
2021/09/16 15:05:51;;;;;;;6.47;5.87;;;;;;;;;;5066658;28;20821;-73
2021/09/16 15:08:27;;;;;;;9.10;5.73;;;;;;;;;;5066568;28;20884;-73
2021/09/16 15:11:04;;;;;;;6.23;5.63;;;;;;;;;;5057264;28;20925;-73
2021/09/16 15:13:42;;;;;;;7.23;5.77;;;;;;;;;;5065949;28;20854;-73
2021/09/16 15:16:19;;;;;;;6.90;6.03;;;;;;;;;;5065935;28;21512;-73
2021/09/16 15:19:10;;;;;;;8.70;6.63;;;;;;;;;;5086726;28;20902;-73
2021/09/16 15:22:00;;;;;;;7.57;6.80;;;;;;;;;;5088614;27;20859;-73
2021/09/16 15:24:38;;;;;;;9.53;7.77;;;;;;;;;;5057065;28;21355;-74
2021/09/16 15:27:15;;;;;;;7.97;6.73;;;;;;;;;;5082140;28;20807;-73
2021/09/16 15:29:52;;;;;;;9.43;8.13;;;;;;;;;;5106587;27;20841;-73
2021/09/16 15:32:29;;;;;;;9.37;8.37;;;;;;;;;;5082058;27;20881;-73
2021/09/16 15:35:06;;;;;;;9.20;8.13;;;;;;;;;;5066429;28;20814;-73
2021/09/16 15:37:43;;;;;;;8.77;7.87;;;;;;;;;;5066082;28;20861;-74
2021/09/16 15:40:19;;;;;;;8.40;7.53;;;;;;;;;;5085750;28;20839;-73
2021/09/16 15:42:56;;;;;;;8.77;7.40;;;;;;;;;;5066074;28;20860;-73
2021/09/16 15:45:35;;;;;;;6.80;6.10;;;;;;;;;;5066152;28;21712;-73
2021/09/16 15:48:12;;;;;;;10.57;7.40;;;;;;;;;;5065916;28;20863;-73
2021/09/16 15:50:48;;;;;;;9.30;7.10;;;;;;;;;;5043295;28;20842;-73
2021/09/16 15:53:26;;;;;;;8.77;7.33;;;;;;;;;;5066417;28;20845;-73
2021/09/16 15:56:03;;;;;;;8.60;7.33;;;;;;;;;;5106825;27;20811;-73
2021/09/16 15:58:40;;;;;;;9.60;8.23;;;;;;;;;;5066583;28;21265;-73
2021/09/16 16:01:16;;;;;;;10.70;8.63;;;;;;;;;;5105089;27;20831;-73
2021/09/16 16:03:53;;;;;;;11.63;9.30;;;;;;;;;;5064547;28;20904;-73
2021/09/16 16:06:29;;;;;;;11.00;8.37;;;;;;;;;;5107341;27;21287;-74
2021/09/16 16:09:07;;;;;;;9.60;8.50;;;;;;;;;;5107230;27;21308;-74
2021/09/16 16:11:44;;;;;;;11.17;9.30;;;;;;;;;;5106983;27;20820;-74
2021/09/16 16:14:21;;;;;;;12.20;9.00;;;;;;;;;;5065718;28;20819;-74
2021/09/16 16:16:58;;;;;;;10.83;9.70;;;;;;;;;;5066708;28;21313;-72
2021/09/16 16:19:34;;;;;;;11.37;10.03;;;;;;;;;;5107099;27;20827;-73
2021/09/16 16:22:11;;;;;;;10.53;9.40;;;;;;;;;;5066557;28;20814;-73
2021/09/16 16:24:47;;;;;;;9.93;8.90;;;;;;;;;;5106314;27;20877;-73
2021/09/16 16:27:24;;;;;;;11.73;9.70;;;;;;;;;;5066770;28;20807;-73
2021/09/16 16:30:03;;;;;;;9.83;8.57;;;;;;;;;;5107492;27;21396;-73
2021/09/16 16:32:42;;;;;;;9.40;8.50;;;;;;;;;;5127726;27;20824;-73
2021/09/16 16:35:19;;;;;;;8.23;7.43;;;;;;;;;;5106908;27;20819;-73
2021/09/16 16:37:57;;;;;;;9.43;7.60;;;;;;;;;;5106833;27;20848;-73
2021/09/16 16:40:33;;;;;;;9.83;8.83;;;;;;;;;;5066725;28;20830;-73
2021/09/16 16:43:10;;;;;;;9.57;8.43;;;;;;;;;;5107292;27;20811;-73
2021/09/16 16:45:47;;;;;;;10.40;7.97;;;;;;;;;;5066817;28;20841;-73
2021/09/16 16:48:25;;;;;;;8.77;7.83;;;;;;;;;;5086495;27;20820;-73
2021/09/16 16:51:02;;;;;;;9.97;8.50;;;;;;;;;;5059943;28;20844;-73
2021/09/16 16:53:40;;;;;;;9.70;8.63;;;;;;;;;;5066614;28;20795;-75
2021/09/16 16:56:16;;;;;;;14.97;8.97;;;;;;;;;;5066695;28;20822;-74
2021/09/16 16:58:53;;;;;;;11.20;10.10;;;;;;;;;;5106934;27;20820;-74
2021/09/16 17:01:29;;;;;;;10.63;9.50;;;;;;;;;;5096888;27;21515;-74
2021/09/16 17:04:09;;;;;;;14.83;10.27;;;;;;;;;;5098844;27;20851;-74
2021/09/16 17:06:46;;;;;;;12.67;10.00;;;;;;;;;;5083499;28;20809;-75
2021/09/16 17:09:23;;;;;;;12.77;10.13;;;;;;;;;;5112093;27;21251;-74
2021/09/16 17:12:01;;;;;;;11.70;9.70;;;;;;;;;;5106783;27;21297;-75
2021/09/16 17:14:37;;;;;;;11.63;9.90;;;;;;;;;;5107672;27;20819;-74
2021/09/16 17:17:14;;;;;;;14.50;10.77;;;;;;;;;;5066782;28;20857;-75
2021/09/16 17:19:51;;;;;;;12.27;9.77;;;;;;;;;;5106566;27;20868;-74